Time;durP1;ratioP1;P1;durP2;ratioP2;P2;SDS_P1;SDS_P2;PMS_P1;PMS_P2;Temp;Humidity;BMP_temperature;BMP_pressure;BME280_temperature;BME280_humidity;BME280_pressure;Samples;Min_cycle;Max_cycle;Signal;HPM_P1;HPM_P2
2023/08/27 00:02:01;;;;;;;6.75;5.70;;;;;;;15.93;98.76;100289.31;6160125;23;20061;-82
2023/08/27 00:04:27;;;;;;;8.00;6.20;;;;;;;16.01;98.57;100290.97;6158939;23;20017;-81
2023/08/27 00:06:54;;;;;;;8.52;6.03;;;;;;;16.02;98.35;100281.22;6157215;23;20056;-80
2023/08/27 00:09:20;;;;;;;7.50;4.78;;;;;;;16.08;97.74;100275.13;6159528;23;20053;-82
2023/08/27 00:11:47;;;;;;;10.40;5.80;;;;;;;16.16;97.37;100274.94;6159034;23;20025;-79
2023/08/27 00:14:16;;;;;;;8.73;4.93;;;;;;;16.23;97.23;100265.22;6158417;23;20069;-81
2023/08/27 00:16:44;;;;;;;6.32;4.93;;;;;;;16.26;97.13;100265.63;6157658;23;20025;-81
2023/08/27 00:19:11;;;;;;;8.25;4.72;;;;;;;16.22;97.39;100261.75;6158445;23;20073;-81
2023/08/27 00:21:42;;;;;;;6.47;4.60;;;;;;;16.19;97.17;100242.88;6158667;23;20052;-81
2023/08/27 00:24:09;;;;;;;6.07;4.68;;;;;;;16.16;96.99;100222.16;6159328;23;20057;-80
2023/08/27 00:26:35;;;;;;;6.55;4.30;;;;;;;16.19;96.88;100222.56;6158262;23;20025;-81
2023/08/27 00:29:03;;;;;;;8.63;4.80;;;;;;;16.06;97.32;100230.50;6158823;23;20048;-82
2023/08/27 00:31:29;;;;;;;6.72;4.88;;;;;;;16.01;98.01;100227.63;6159019;23;20366;-81
2023/08/27 00:33:57;;;;;;;6.28;4.95;;;;;;;15.97;98.64;100229.06;6159520;23;20033;-79
2023/08/27 00:36:24;;;;;;;8.00;5.15;;;;;;;16.01;99.31;100230.28;6158274;23;20327;-81
2023/08/27 00:38:50;;;;;;;5.78;4.53;;;;;;;15.88;99.97;100217.88;6159546;23;20029;-82
2023/08/27 00:41:18;;;;;;;6.50;4.40;;;;;;;15.76;100.00;100208.09;6159371;23;20080;-81
2023/08/27 00:43:44;;;;;;;5.45;4.10;;;;;;;15.81;100.00;100208.31;6159745;23;20025;-82
2023/08/27 00:46:11;;;;;;;7.25;4.53;;;;;;;15.83;100.00;100206.28;6159565;23;20074;-81
2023/08/27 00:48:38;;;;;;;7.15;4.10;;;;;;;15.78;100.00;100211.34;6160381;23;20143;-84
2023/08/27 00:51:06;;;;;;;7.10;4.40;;;;;;;15.75;100.00;100209.91;6159867;23;20417;-83
2023/08/27 00:53:34;;;;;;;5.32;4.10;;;;;;;15.77;100.00;100209.72;6160274;23;20053;-83
2023/08/27 00:56:01;;;;;;;6.10;4.63;;;;;;;15.74;100.00;100207.47;6159433;23;20097;-83
2023/08/27 00:58:27;;;;;;;5.65;4.18;;;;;;;15.71;100.00;100200.78;6159973;23;20053;-83
2023/08/27 01:00:54;;;;;;;8.05;4.68;;;;;;;15.65;100.00;100196.28;6156854;23;20056;-79
2023/08/27 01:03:21;;;;;;;5.85;4.50;;;;;;;15.60;100.00;100209.25;6156745;23;20096;-80
2023/08/27 01:05:47;;;;;;;7.90;4.50;;;;;;;15.64;100.00;100225.50;6156827;23;20060;-81
2023/08/27 01:08:27;;;;;;;6.13;3.90;;;;;;;15.63;100.00;100213.31;6157963;23;20029;-82
2023/08/27 01:11:01;;;;;;;6.50;4.03;;;;;;;15.59;100.00;100223.50;6158220;23;20061;-82
2023/08/27 01:13:35;;;;;;;5.30;4.20;;;;;;;15.52;100.00;100233.16;6158955;23;20359;-82
2023/08/27 01:16:02;;;;;;;6.32;4.47;;;;;;;15.49;100.00;100239.66;6157433;23;20052;-81
2023/08/27 01:18:30;;;;;;;6.78;4.25;;;;;;;15.47;100.00;100251.41;6156978;23;20033;-80
2023/08/27 01:20:57;;;;;;;4.97;4.47;;;;;;;15.41;100.00;100252.19;6157766;23;20022;-81
2023/08/27 01:23:25;;;;;;;6.97;4.18;;;;;;;15.39;100.00;100249.75;6156727;23;20051;-81
2023/08/27 01:25:52;;;;;;;6.72;4.85;;;;;;;15.31;100.00;100247.28;6157932;23;20032;-82
2023/08/27 01:28:26;;;;;;;7.85;4.40;;;;;;;15.32;100.00;100242.81;6156276;23;20057;-80
2023/08/27 01:31:00;;;;;;;5.32;4.22;;;;;;;15.30;100.00;100245.66;6157295;23;20065;-82
2023/08/27 01:33:29;;;;;;;11.90;4.65;;;;;;;15.27;100.00;100251.31;6157786;23;20026;-81
2023/08/27 01:35:57;;;;;;;8.10;4.55;;;;;;;15.27;100.00;100257.38;6158131;23;20026;-81
2023/08/27 01:38:25;;;;;;;6.60;4.70;;;;;;;15.24;100.00;100259.59;6157920;23;20033;-82
2023/08/27 01:40:52;;;;;;;6.65;4.55;;;;;;;15.28;100.00;100253.75;6157340;23;20017;-82
2023/08/27 01:43:19;;;;;;;6.60;4.63;;;;;;;15.32;100.00;100253.34;6157956;23;20026;-81
2023/08/27 01:45:46;;;;;;;6.22;4.43;;;;;;;15.28;100.00;100248.47;6157148;23;20096;-80
2023/08/27 01:48:12;;;;;;;7.38;4.30;;;;;;;15.25;100.00;100234.88;6157548;23;20053;-81
2023/08/27 01:50:39;;;;;;;6.70;4.32;;;;;;;15.22;100.00;100232.63;6157546;23;20096;-80
2023/08/27 01:53:05;;;;;;;8.00;4.72;;;;;;;15.22;100.00;100215.00;6157669;23;20045;-82
2023/08/27 01:55:34;;;;;;;5.10;4.57;;;;;;;15.23;100.00;100223.72;6158501;23;20314;-80
2023/08/27 01:58:00;;;;;;;7.50;4.60;;;;;;;15.24;100.00;100212.97;6158560;23;20097;-82
2023/08/27 02:00:27;;;;;;;7.07;4.30;;;;;;;15.22;100.00;100211.53;6158449;23;20060;-80
2023/08/27 02:02:54;;;;;;;6.20;4.47;;;;;;;15.22;100.00;100217.63;6159169;23;20029;-83
2023/08/27 02:05:20;;;;;;;6.00;4.15;;;;;;;15.18;100.00;100216.38;6159294;23;20478;-81
2023/08/27 02:07:47;;;;;;;9.15;4.53;;;;;;;15.16;100.00;100221.03;6158481;23;20085;-80
2023/08/27 02:10:14;;;;;;;5.93;4.68;;;;;;;15.13;100.00;100208.25;6158333;23;20033;-83
2023/08/27 02:12:42;;;;;;;6.28;4.78;;;;;;;15.12;100.00;100213.75;6159939;23;20025;-79
2023/08/27 02:15:09;;;;;;;7.00;4.97;;;;;;;15.14;100.00;100214.34;6160278;23;20365;-81
2023/08/27 02:17:35;;;;;;;7.88;5.07;;;;;;;15.12;100.00;100200.56;6162527;23;20032;-79
2023/08/27 02:20:06;;;;;;;7.10;4.68;;;;;;;15.11;100.00;100196.31;6164264;23;20037;-80
2023/08/27 02:22:33;;;;;;;6.78;4.78;;;;;;;15.12;100.00;100195.31;6168973;23;20394;-79
2023/08/27 02:24:59;;;;;;;5.95;4.70;;;;;;;15.14;100.00;100187.97;6161212;23;20076;-82
2023/08/27 02:27:26;;;;;;;6.57;5.40;;;;;;;15.11;100.00;100177.88;6159283;23;20057;-81
2023/08/27 02:29:54;;;;;;;6.50;5.15;;;;;;;15.12;100.00;100179.50;6160700;23;20097;-82
2023/08/27 02:32:21;;;;;;;6.72;5.32;;;;;;;15.08;100.00;100165.06;6160695;23;20021;-81
2023/08/27 02:34:48;;;;;;;6.97;5.90;;;;;;;15.04;100.00;100167.28;6158293;23;20084;-81
2023/08/27 02:37:15;;;;;;;6.80;5.80;;;;;;;14.99;100.00;100163.63;6160199;23;20053;-81
2023/08/27 02:39:42;;;;;;;6.38;5.13;;;;;;;14.96;100.00;100174.53;6160337;23;20049;-81
2023/08/27 02:42:08;;;;;;;6.53;5.68;;;;;;;14.91;100.00;100181.22;6160119;23;20056;-81
2023/08/27 02:44:35;;;;;;;7.05;5.60;;;;;;;14.94;100.00;100180.00;6160316;23;20056;-83
2023/08/27 02:47:03;;;;;;;9.10;5.70;;;;;;;14.93;100.00;100181.81;6159946;23;20049;-83
2023/08/27 02:49:30;;;;;;;9.48;5.60;;;;;;;14.87;100.00;100195.78;6160656;23;20022;-82
2023/08/27 02:51:56;;;;;;;7.32;5.70;;;;;;;14.71;100.00;100185.53;6160376;23;20362;-80
2023/08/27 02:54:23;;;;;;;7.97;5.93;;;;;;;14.76;100.00;100180.50;6160400;23;20177;-82
2023/08/27 02:56:50;;;;;;;6.57;5.40;;;;;;;14.70;100.00;100175.19;6159442;23;20049;-83
2023/08/27 02:59:16;;;;;;;7.82;5.47;;;;;;;14.74;100.00;100171.16;6160007;23;20080;-83
2023/08/27 03:01:43;;;;;;;8.73;5.75;;;;;;;14.80;100.00;100181.75;6160281;23;20080;-83
2023/08/27 03:04:11;;;;;;;8.90;5.68;;;;;;;14.69;100.00;100174.38;6161002;23;20117;-84
2023/08/27 03:06:38;;;;;;;6.93;5.38;;;;;;;14.68;100.00;100175.38;6160722;23;20025;-83
2023/08/27 03:09:04;;;;;;;7.32;5.50;;;;;;;14.75;100.00;100178.06;6160183;23;20066;-82
2023/08/27 03:11:32;;;;;;;7.63;5.35;;;;;;;14.76;100.00;100171.78;6161391;23;20022;-81
2023/08/27 03:13:58;;;;;;;12.05;6.35;;;;;;;14.79;100.00;100169.59;6160600;23;20049;-83
2023/08/27 03:16:25;;;;;;;7.70;5.55;;;;;;;14.82;100.00;100168.38;6158713;23;20030;-83
2023/08/27 03:18:51;;;;;;;7.85;5.88;;;;;;;14.77;100.00;100163.69;6160964;23;20033;-83
2023/08/27 03:21:21;;;;;;;8.90;5.63;;;;;;;14.80;100.00;100170.41;6161461;23;20021;-82
2023/08/27 03:23:47;;;;;;;7.82;5.80;;;;;;;14.80;100.00;100170.41;6160659;23;20060;-83
2023/08/27 03:26:14;;;;;;;7.20;5.88;;;;;;;14.78;100.00;100170.59;6160512;23;20056;-83
2023/08/27 03:28:41;;;;;;;7.05;5.95;;;;;;;14.78;100.00;100157.41;6158832;23;20026;-79
2023/08/27 03:31:07;;;;;;;6.75;6.00;;;;;;;14.78;100.00;100167.16;6158635;23;20018;-81
2023/08/27 03:33:36;;;;;;;10.02;6.25;;;;;;;14.76;100.00;100169.97;6160520;23;20061;-81
2023/08/27 03:36:08;;;;;;;8.02;5.60;;;;;;;14.73;100.00;100166.91;6159763;23;20100;-80
2023/08/27 03:38:41;;;;;;;8.68;6.28;;;;;;;14.36;100.00;100137.28;6159135;23;20034;-82
2023/08/27 03:41:12;;;;;;;8.10;6.05;;;;;;;14.46;100.00;100152.78;6158590;23;20033;-81
2023/08/27 03:43:41;;;;;;;7.68;5.70;;;;;;;14.46;100.00;100153.59;6158261;23;20080;-80
2023/08/27 03:46:07;;;;;;;7.00;6.00;;;;;;;14.57;100.00;100174.13;6158592;23;20080;-80
2023/08/27 03:48:42;;;;;;;11.73;6.03;;;;;;;14.54;100.00;100171.06;6157724;23;20033;-81
2023/08/27 03:51:09;;;;;;;7.80;6.32;;;;;;;14.46;100.00;100145.69;6158976;23;20021;-82
2023/08/27 03:53:38;;;;;;;9.18;6.10;;;;;;;14.48;100.00;100150.78;6158717;23;20060;-81
2023/08/27 03:56:08;;;;;;;12.45;6.90;;;;;;;14.49;100.00;100140.06;6158265;23;20030;-81
2023/08/27 03:58:37;;;;;;;8.70;5.97;;;;;;;14.57;100.00;100144.34;6153923;23;20104;-81
2023/08/27 04:01:34;;;;;;;7.80;6.15;;;;;;;14.74;100.00;100165.91;6159184;23;20100;-80
2023/08/27 04:04:52;;;;;;;8.98;6.07;;;;;;;14.81;100.00;100161.50;6143265;23;20029;-81
2023/08/27 04:07:52;;;;;;;;;;;;;;;;;;;;;
2023/08/27 04:11:14;;;;;;;6.80;5.60;;;;;;;14.73;100.00;100141.38;6070184;23;20030;-81
2023/08/27 04:30:20;;;;;;;9.07;6.15;;;;;;;15.24;100.00;100167.34;5906060;24;20029;-81
2023/08/27 04:32:47;;;;;;;6.38;5.78;;;;;;;15.16;100.00;100155.16;6050014;23;20478;-83
2023/08/27 04:35:15;;;;;;;10.43;5.95;;;;;;;15.20;100.00;100166.94;6161076;23;20129;-85
2023/08/27 04:37:46;;;;;;;6.22;5.47;;;;;;;15.38;100.00;100179.56;6159840;23;20057;-85
2023/08/27 04:40:12;;;;;;;8.23;6.00;;;;;;;15.19;100.00;100146.03;6159125;23;20340;-85
2023/08/27 04:42:39;;;;;;;8.18;5.93;;;;;;;15.21;100.00;100159.84;6159749;23;20026;-83
2023/08/27 04:45:08;;;;;;;7.88;5.97;;;;;;;15.46;100.00;100192.59;6164611;23;20025;-84
2023/08/27 04:47:34;;;;;;;7.72;6.07;;;;;;;15.38;100.00;100170.84;6167238;23;20366;-84
2023/08/27 04:50:01;;;;;;;9.30;5.70;;;;;;;15.39;100.00;100167.19;6164609;23;20021;-85
2023/08/27 04:52:27;;;;;;;7.30;5.80;;;;;;;15.46;100.00;100189.94;6158054;23;20096;-83
2023/08/27 04:54:56;;;;;;;10.15;5.60;;;;;;;15.47;100.00;100178.38;6157901;23;20053;-85
2023/08/27 04:57:22;;;;;;;8.13;5.82;;;;;;;15.45;100.00;100169.06;6158024;23;20036;-84
2023/08/27 04:59:53;;;;;;;9.00;5.57;;;;;;;15.57;100.00;100181.50;6158123;23;20025;-85
2023/08/27 05:02:20;;;;;;;6.25;5.15;;;;;;;15.59;100.00;100184.75;6154176;23;20033;-85
2023/08/27 05:04:47;;;;;;;9.50;5.85;;;;;;;15.53;100.00;100172.31;6158198;23;20026;-85
2023/08/27 05:07:48;;;;;;;8.48;5.68;;;;;;;15.49;100.00;100165.81;6159053;23;20040;-84
2023/08/27 05:10:23;;;;;;;7.95;5.20;;;;;;;15.74;100.00;100199.56;6162200;23;20065;-84
2023/08/27 05:13:19;;;;;;;8.38;5.00;;;;;;;15.69;100.00;100183.53;6162007;23;20021;-84
2023/08/27 05:15:51;;;;;;;10.00;5.95;;;;;;;15.74;100.00;100196.94;6161909;23;20017;-83
2023/08/27 05:18:26;;;;;;;9.75;5.50;;;;;;;15.77;100.00;100201.81;6164425;23;20032;-83
2023/08/27 05:21:06;;;;;;;7.65;4.68;;;;;;;15.75;100.00;100217.84;6164721;23;20080;-84
2023/08/27 05:23:39;;;;;;;8.75;4.90;;;;;;;15.57;100.00;100196.50;6172939;23;20018;-84
2023/08/27 05:26:07;;;;;;;7.68;4.53;;;;;;;15.32;100.00;100163.72;6175803;23;20022;-82
2023/08/27 05:28:47;;;;;;;6.95;4.80;;;;;;;15.57;100.00;100189.41;6174773;23;20026;-83
2023/08/27 05:31:17;;;;;;;5.88;4.35;;;;;;;15.36;100.00;100165.78;6172920;23;20041;-82
2023/08/27 05:33:54;;;;;;;7.85;4.45;;;;;;;15.47;100.00;100188.94;6172143;23;20032;-82
2023/08/27 05:36:24;;;;;;;6.57;5.28;;;;;;;15.24;100.00;100162.06;6173781;23;20036;-83
2023/08/27 05:39:09;;;;;;;6.40;5.00;;;;;;;15.46;100.00;100168.03;6174291;23;20025;-82
2023/08/27 05:41:38;;;;;;;5.68;4.70;;;;;;;15.63;100.00;100181.69;6173319;23;20021;-83
2023/08/27 05:44:08;;;;;;;7.43;4.65;;;;;;;15.67;100.00;100193.47;6174303;23;20017;-83
2023/08/27 05:46:49;;;;;;;8.50;4.85;;;;;;;15.62;100.00;100172.16;6173163;23;20017;-83
2023/08/27 05:49:24;;;;;;;9.85;4.82;;;;;;;15.68;100.00;100190.63;6175232;23;20104;-82
2023/08/27 05:51:57;;;;;;;5.07;4.40;;;;;;;15.81;100.00;100205.66;6174002;23;20101;-81
2023/08/27 05:54:47;;;;;;;5.05;4.15;;;;;;;15.69;100.00;100176.44;6174807;23;20056;-82
2023/08/27 05:57:19;;;;;;;7.82;4.55;;;;;;;15.80;100.00;100180.31;6174586;23;20073;-83
2023/08/27 05:59:50;;;;;;;7.93;4.20;;;;;;;15.93;100.00;100204.06;6173593;23;20073;-83
2023/08/27 06:02:17;;;;;;;7.80;4.25;;;;;;;15.76;100.00;100177.25;6171264;23;20036;-83
2023/08/27 06:04:44;;;;;;;4.68;3.80;;;;;;;15.92;100.00;100203.25;6170447;23;20021;-83
2023/08/27 06:07:11;;;;;;;4.53;3.80;;;;;;;15.88;100.00;100204.66;6170533;23;20029;-81
2023/08/27 06:09:38;;;;;;;4.65;3.65;;;;;;;15.80;100.00;100207.50;6169434;23;20025;-80
2023/08/27 06:12:06;;;;;;;7.95;4.10;;;;;;;16.01;100.00;100216.28;6173046;23;20021;-83
2023/08/27 06:14:34;;;;;;;5.53;3.70;;;;;;;15.99;100.00;100216.47;6174521;23;20077;-83
2023/08/27 06:17:01;;;;;;;5.40;4.00;;;;;;;16.03;100.00;100215.06;6173447;23;20039;-81
2023/08/27 06:19:27;;;;;;;5.85;3.70;;;;;;;16.04;100.00;100221.16;6174620;23;20025;-83
2023/08/27 06:21:54;;;;;;;6.07;3.78;;;;;;;16.13;100.00;100212.81;6174881;23;20033;-83
2023/08/27 06:24:20;;;;;;;6.80;3.90;;;;;;;16.27;100.00;100211.81;6174828;23;20225;-83
2023/08/27 06:26:47;;;;;;;5.03;3.90;;;;;;;16.34;100.00;100221.56;6175179;23;20029;-83
2023/08/27 06:29:14;;;;;;;6.25;3.72;;;;;;;16.25;100.00;100211.19;6174922;23;20033;-82
2023/08/27 06:31:43;;;;;;;6.63;4.30;;;;;;;16.26;100.00;100207.53;6173894;23;20327;-84
2023/08/27 06:34:10;;;;;;;5.85;4.10;;;;;;;16.57;100.00;100235.94;6173588;23;20032;-83
2023/08/27 06:36:37;;;;;;;5.32;4.00;;;;;;;16.69;100.00;100230.91;6171773;23;20049;-83
2023/08/27 06:39:03;;;;;;;;;;;;;;;16.80;100.00;100227.63;6171825;23;20025;-83
2023/08/27 06:41:30;;;;;;;;;;;;;;;16.87;100.00;100220.50;6171565;23;19940;-82
2023/08/27 06:43:56;;;;;;;;;;;;;;;16.92;100.00;100230.47;6169363;23;20331;-84
2023/08/27 06:46:23;;;;;;;;;;;;;;;16.96;100.00;100236.16;6169216;23;19988;-83
2023/08/27 06:48:51;;;;;;;;;;;;;;;17.00;100.00;100232.06;6170732;23;19940;-84
2023/08/27 06:51:17;;;;;;;;;;;;;;;16.98;100.00;100239.41;6169149;23;19920;-83
2023/08/27 06:53:44;;;;;;;;;;;;;;;17.07;100.00;100227.56;6168794;23;20004;-84
2023/08/27 06:56:10;;;;;;;;;;;;;;;17.10;100.00;100227.13;6169789;23;19983;-83
2023/08/27 06:58:37;;;;;;;;;;;;;;;17.10;100.00;100232.44;6169762;23;19944;-83
2023/08/27 07:01:04;;;;;;;;;;;;;;;17.33;100.00;100227.47;6169959;23;19924;-83
2023/08/27 07:03:34;;;;;;;;;;;;;;;17.69;100.00;100218.97;6171097;23;24056;-83
2023/08/27 07:06:05;;;;;;;6.13;3.60;;;;;;;18.17;99.76;100216.63;6172403;23;20022;-83
2023/08/27 07:08:33;;;;;;;6.57;3.78;;;;;;;19.19;95.61;100201.16;6169336;23;20537;-85
2023/08/27 07:11:02;;;;;;;6.18;3.88;;;;;;;19.62;92.10;100189.63;6169329;23;20022;-82
2023/08/27 07:13:29;;;;;;;5.15;3.75;;;;;;;19.86;89.69;100170.03;6169774;23;20025;-83
2023/08/27 07:15:57;;;;;;;4.78;3.38;;;;;;;20.65;85.85;100155.44;6171720;23;20037;-83
2023/08/27 07:18:24;;;;;;;7.18;3.80;;;;;;;21.63;82.87;100169.63;6172022;23;20055;-83
2023/08/27 07:20:51;;;;;;;5.57;3.97;;;;;;;21.84;80.42;100183.03;6172687;23;20351;-83
2023/08/27 07:23:26;;;;;;;4.78;3.97;;;;;;;21.83;78.15;100164.63;6170024;23;20085;-82
2023/08/27 07:25:54;;;;;;;4.45;3.70;;;;;;;21.80;78.29;100175.75;6171073;23;20548;-82
2023/08/27 07:28:21;;;;;;;6.50;4.03;;;;;;;21.29;80.81;100172.19;6171133;23;20025;-82
2023/08/27 07:30:51;;;;;;;7.05;4.05;;;;;;;21.12;80.44;100195.25;6170615;23;20105;-82
2023/08/27 07:33:18;;;;;;;7.38;4.43;;;;;;;20.59;82.28;100184.81;6166803;23;20438;-83
2023/08/27 07:35:45;;;;;;;6.65;4.38;;;;;;;20.87;80.29;100161.75;6165552;23;20054;-83
2023/08/27 07:38:11;;;;;;;7.13;4.32;;;;;;;20.67;80.09;100174.63;6166996;23;20025;-82
2023/08/27 07:40:40;;;;;;;7.32;4.22;;;;;;;20.46;81.16;100193.81;6171395;23;20446;-82
2023/08/27 07:43:07;;;;;;;7.05;4.35;;;;;;;20.96;82.15;100195.97;6170968;23;20135;-82
2023/08/27 07:45:34;;;;;;;7.22;4.07;;;;;;;21.17;79.50;100158.09;6170982;23;20026;-82
2023/08/27 07:48:01;;;;;;;9.20;4.93;;;;;;;21.28;78.61;100167.09;6174025;23;20020;-82
2023/08/27 07:50:28;;;;;;;8.63;4.80;;;;;;;21.04;79.08;100171.66;6174869;23;20025;-81
2023/08/27 07:52:54;;;;;;;6.63;4.70;;;;;;;20.75;79.59;100184.91;6172459;23;20278;-82
2023/08/27 07:55:22;;;;;;;9.05;4.80;;;;;;;20.27;80.69;100192.31;6173579;23;20018;-83
2023/08/27 07:57:50;;;;;;;5.82;4.50;;;;;;;20.33;82.89;100207.28;6172560;23;20025;-83
2023/08/27 08:00:19;;;;;;;9.85;5.10;;;;;;;20.64;82.88;100208.84;6172949;23;20033;-82
2023/08/27 08:02:46;;;;;;;6.22;4.13;;;;;;;20.85;81.61;100201.06;6169392;23;20029;-82
2023/08/27 08:05:12;;;;;;;6.65;4.60;;;;;;;21.24;80.37;100198.72;6169532;23;20025;-79
2023/08/27 08:07:40;;;;;;;8.25;4.90;;;;;;;20.89;79.67;100182.78;6171813;23;20037;-82
2023/08/27 08:10:07;;;;;;;8.13;4.30;;;;;;;20.12;81.27;100198.84;6171827;23;20025;-82
2023/08/27 08:12:35;;;;;;;5.25;3.90;;;;;;;20.54;81.72;100207.56;6168057;23;20022;-82
2023/08/27 08:15:03;;;;;;;6.30;4.10;;;;;;;20.47;82.57;100204.22;6170917;23;20025;-82
2023/08/27 08:17:30;;;;;;;5.28;3.85;;;;;;;20.57;82.61;100203.66;6170243;23;20025;-83
2023/08/27 08:19:57;;;;;;;5.40;3.72;;;;;;;20.69;81.75;100198.34;6168078;23;20025;-83
2023/08/27 08:22:24;;;;;;;7.10;4.75;;;;;;;20.42;80.58;100190.81;6166423;23;20029;-82
2023/08/27 08:24:50;;;;;;;4.60;3.65;;;;;;;20.02;80.86;100187.16;6162266;23;20026;-85
2023/08/27 08:27:18;;;;;;;8.40;4.40;;;;;;;19.95;81.73;100195.25;6165205;23;20026;-84
2023/08/27 08:29:45;;;;;;;6.07;4.40;;;;;;;19.84;83.75;100207.47;6166972;23;20068;-85
2023/08/27 08:32:13;;;;;;;6.15;4.10;;;;;;;19.86;84.04;100212.53;6165347;23;20032;-84
2023/08/27 08:34:45;;;;;;;7.93;4.40;;;;;;;19.75;83.50;100211.47;6163634;23;20091;-86
2023/08/27 08:37:11;;;;;;;7.30;4.50;;;;;;;19.39;85.14;100212.31;6167207;23;20060;-82
2023/08/27 08:39:38;;;;;;;6.43;4.50;;;;;;;19.48;86.83;100224.25;6174350;23;20028;-83
2023/08/27 08:42:16;;;;;;;8.02;4.65;;;;;;;19.70;86.32;100224.63;6172010;23;20076;-82
2023/08/27 08:44:52;;;;;;;6.10;4.30;;;;;;;19.61;85.65;100198.63;6172808;23;20026;-80
2023/08/27 08:47:22;;;;;;;6.88;4.18;;;;;;;19.85;84.71;100201.09;6171216;23;20156;-81
2023/08/27 08:49:54;;;;;;;5.78;4.43;;;;;;;19.90;84.69;100200.41;6175867;23;20024;-80
2023/08/27 08:52:27;;;;;;;5.80;4.50;;;;;;;20.02;85.20;100216.38;6172710;23;20022;-81
2023/08/27 08:54:55;;;;;;;7.50;4.57;;;;;;;19.83;85.18;100205.84;6171336;23;20043;-81
2023/08/27 08:57:27;;;;;;;9.45;4.43;;;;;;;19.64;86.04;100208.78;6169834;23;20037;-81
2023/08/27 08:59:55;;;;;;;6.53;4.30;;;;;;;19.63;86.21;100210.63;6171968;23;20029;-80
2023/08/27 09:02:23;;;;;;;6.80;4.70;;;;;;;19.51;86.99;100210.56;6171292;23;20021;-81
2023/08/27 09:04:51;;;;;;;8.52;4.22;;;;;;;19.60;85.77;100215.56;6171962;23;20021;-83
2023/08/27 09:07:19;;;;;;;6.20;4.25;;;;;;;19.65;85.30;100205.09;6171186;23;20179;-83
2023/08/27 09:09:48;;;;;;;6.47;4.38;;;;;;;19.72;85.15;100195.19;6173274;23;20022;-83
2023/08/27 09:12:20;;;;;;;8.63;4.30;;;;;;;19.72;83.08;100174.78;6171985;23;20022;-83
2023/08/27 09:14:53;;;;;;;6.43;3.83;;;;;;;19.97;83.83;100208.28;6173759;23;20052;-84
2023/08/27 09:17:23;;;;;;;9.88;4.03;;;;;;;20.31;82.12;100182.84;6169292;23;20033;-82
2023/08/27 09:19:51;;;;;;;7.25;4.10;;;;;;;19.98;81.14;100154.94;6171689;23;20025;-83
2023/08/27 09:22:25;;;;;;;7.50;4.03;;;;;;;19.95;80.15;100147.44;6171514;23;20022;-80
2023/08/27 09:24:53;;;;;;;6.30;3.45;;;;;;;20.35;80.85;100191.94;6171670;23;20026;-83
2023/08/27 09:27:22;;;;;;;5.18;3.92;;;;;;;20.40;80.85;100179.59;6171650;23;20021;-81
2023/08/27 09:29:52;;;;;;;5.75;3.78;;;;;;;20.74;80.07;100188.63;6172371;23;20080;-81
2023/08/27 09:32:22;;;;;;;5.85;3.60;;;;;;;20.80;78.26;100141.66;6171041;23;20258;-81
2023/08/27 09:34:59;;;;;;;8.63;4.00;;;;;;;21.41;77.78;100178.28;6173758;23;20025;-82
2023/08/27 09:37:28;;;;;;;6.65;3.70;;;;;;;21.92;76.74;100163.19;6172996;23;20025;-82
2023/08/27 09:39:57;;;;;;;7.45;3.80;;;;;;;22.22;73.52;100156.72;6171872;23;20080;-81
2023/08/27 09:42:24;;;;;;;6.47;3.75;;;;;;;22.52;74.32;100167.84;6169688;23;20102;-81
2023/08/27 09:44:53;;;;;;;7.10;4.30;;;;;;;22.61;73.50;100170.91;6174509;23;20036;-80
2023/08/27 09:47:30;;;;;;;6.70;4.38;;;;;;;22.59;72.68;100151.69;6173660;23;20025;-83
2023/08/27 09:49:58;;;;;;;7.07;4.10;;;;;;;21.82;75.79;100150.50;6170958;23;20064;-81
2023/08/27 09:52:28;;;;;;;5.57;4.00;;;;;;;22.12;75.10;100174.22;6168353;23;20048;-82
2023/08/27 09:54:54;;;;;;;8.30;4.53;;;;;;;22.30;72.83;100127.81;6168609;23;20081;-81
2023/08/27 09:57:21;;;;;;;8.88;4.72;;;;;;;21.83;74.28;100143.31;6169477;23;20026;-80
2023/08/27 09:59:48;;;;;;;9.00;4.50;;;;;;;21.98;75.37;100153.41;6170158;23;20021;-82
2023/08/27 10:02:19;;;;;;;7.35;4.28;;;;;;;21.93;74.90;100151.47;6164223;23;20032;-85
2023/08/27 10:07:59;;;;;;;7.32;4.30;;;;;;;21.88;72.59;100108.78;6168695;23;20026;-82
2023/08/27 10:10:27;;;;;;;7.47;4.38;;;;;;;22.51;73.56;100150.25;6167339;23;20351;-82
2023/08/27 10:13:14;;;;;;;6.70;4.25;;;;;;;22.87;69.78;100116.03;6166608;23;20032;-84
2023/08/27 10:15:44;;;;;;;8.20;4.60;;;;;;;22.83;69.02;100089.88;6164379;23;20021;-83
2023/08/27 10:18:19;;;;;;;4.85;3.58;;;;;;;23.03;68.87;100083.16;6164334;23;20028;-84
2023/08/27 10:20:46;;;;;;;7.43;4.22;;;;;;;22.78;68.62;100087.13;6167219;23;20017;-81
2023/08/27 10:23:16;;;;;;;11.88;8.00;;;;;;;23.40;68.52;100086.72;6168601;23;20025;-81
2023/08/27 10:26:02;;;;;;;10.48;5.40;;;;;;;23.90;67.34;100120.28;6176661;23;20037;-83
2023/08/27 10:28:30;;;;;;;7.32;4.72;;;;;;;23.77;67.00;100084.09;6166422;23;20026;-84
2023/08/27 10:31:00;;;;;;;9.88;6.60;;;;;;;23.68;67.31;100090.97;6163245;23;20071;-85
2023/08/27 10:33:27;;;;;;;5.32;3.90;;;;;;;23.60;67.12;100088.00;6158475;23;20041;-79
2023/08/27 10:35:55;;;;;;;7.63;3.85;;;;;;;23.60;67.23;100094.13;6160249;23;20022;-81
2023/08/27 10:38:26;;;;;;;5.13;3.67;;;;;;;23.56;64.33;100074.34;6161675;23;20104;-80
2023/08/27 10:40:53;;;;;;;6.45;3.83;;;;;;;23.46;65.87;100092.91;6162043;23;20025;-81
2023/08/27 10:43:21;;;;;;;5.78;3.53;;;;;;;23.62;65.26;100085.88;6162112;23;20048;-81
2023/08/27 10:45:49;;;;;;;4.40;3.47;;;;;;;23.38;65.14;100080.00;6163462;23;20021;-81
2023/08/27 10:48:30;;;;;;;4.88;3.80;;;;;;;23.40;65.07;100093.91;6161014;23;20022;-79
2023/08/27 10:51:09;;;;;;;6.78;3.80;;;;;;;23.59;65.57;100089.84;6161755;23;20325;-81
2023/08/27 10:53:41;;;;;;;6.30;4.40;;;;;;;23.43;65.49;100099.56;6164123;23;20017;-81
2023/08/27 10:56:29;;;;;;;7.00;3.60;;;;;;;24.14;64.03;100092.09;6163435;23;20045;-80
2023/08/27 10:59:00;;;;;;;9.55;3.60;;;;;;;23.69;64.97;100097.91;6165448;23;20406;-80
2023/08/27 11:01:27;;;;;;;5.25;3.25;;;;;;;23.46;64.01;100091.03;6163246;23;20370;-79
2023/08/27 11:03:58;;;;;;;5.30;3.50;;;;;;;23.94;63.30;100078.63;6162623;23;20049;-80
2023/08/27 11:06:40;;;;;;;4.50;3.40;;;;;;;23.81;62.30;100073.72;6162879;23;20025;-80
2023/08/27 11:09:16;;;;;;;6.20;3.22;;;;;;;23.50;64.43;100092.16;6162119;23;20414;-80
2023/08/27 11:11:45;;;;;;;7.57;3.40;;;;;;;23.12;63.79;100074.44;6160328;23;20029;-80
2023/08/27 11:14:14;;;;;;;4.35;3.10;;;;;;;22.65;65.34;100092.84;6161014;23;20061;-81
2023/08/27 11:16:45;;;;;;;5.47;3.40;;;;;;;22.12;67.11;100094.28;6163192;23;20076;-79
2023/08/27 11:19:13;;;;;;;5.10;3.47;;;;;;;22.01;66.18;100086.34;6161571;23;20036;-79
2023/08/27 11:21:47;;;;;;;6.50;3.47;;;;;;;22.26;65.76;100080.56;6162686;23;20022;-81
2023/08/27 11:24:16;;;;;;;5.32;3.40;;;;;;;22.79;65.45;100080.75;6163442;23;20032;-78
2023/08/27 11:26:44;;;;;;;6.50;3.22;;;;;;;23.15;64.31;100065.13;6163649;23;20045;-82
2023/08/27 11:29:11;;;;;;;5.40;3.25;;;;;;;23.11;64.24;100070.16;6162198;23;20140;-81
2023/08/27 11:31:39;;;;;;;4.07;2.80;;;;;;;22.84;63.36;100072.81;6159492;23;20029;-79
2023/08/27 11:34:07;;;;;;;4.70;2.95;;;;;;;22.75;63.48;100074.25;6160793;23;20031;-81
2023/08/27 11:36:34;;;;;;;8.20;2.97;;;;;;;22.84;63.08;100058.66;6160062;23;20045;-81
2023/08/27 11:39:02;;;;;;;6.65;2.60;;;;;;;22.72;62.75;100072.09;6158917;23;20022;-81
2023/08/27 11:41:36;;;;;;;3.25;2.65;;;;;;;22.80;62.36;100052.22;6158258;23;20078;-80
2023/08/27 11:44:04;;;;;;;5.35;3.10;;;;;;;22.74;62.47;100064.66;6158519;23;20419;-80
2023/08/27 11:46:31;;;;;;;6.95;2.70;;;;;;;22.67;62.47;100072.06;6162042;23;20072;-80
2023/08/27 11:48:58;;;;;;;4.82;3.00;;;;;;;23.06;62.69;100066.63;6162580;23;20030;-79
2023/08/27 11:51:25;;;;;;;4.97;2.58;;;;;;;23.26;62.41;100072.16;6163146;23;20060;-81
2023/08/27 11:53:52;;;;;;;5.15;3.00;;;;;;;23.25;61.91;100062.53;6161909;23;20024;-80
2023/08/27 11:56:19;;;;;;;4.97;2.53;;;;;;;23.52;60.87;100059.03;6161523;23;20030;-80